createdAt,value
2023-05-01T00:00:13.879Z,1017.90
2023-05-01T00:01:14.253Z,1017.84
2023-05-01T00:02:14.518Z,1017.87
2023-05-01T00:03:14.817Z,1017.84
2023-05-01T00:04:15.193Z,1017.85
2023-05-01T00:05:15.292Z,1017.79
2023-05-01T00:06:15.693Z,1017.83
2023-05-01T00:07:15.867Z,1017.80
2023-05-01T00:08:16.228Z,1017.81
2023-05-01T00:09:16.538Z,1017.85
2023-05-01T00:10:16.843Z,1017.77
2023-05-01T00:11:17.239Z,1017.81
2023-05-01T00:12:17.395Z,1017.84
2023-05-01T00:13:17.735Z,1017.79
2023-05-01T00:14:18.061Z,1017.77
2023-05-01T00:15:18.410Z,1017.83
2023-05-01T00:16:18.802Z,1017.71
2023-05-01T00:17:18.979Z,1017.74
2023-05-01T00:18:19.292Z,1017.76
2023-05-01T00:19:19.655Z,1017.69
2023-05-01T00:20:19.919Z,1017.72
2023-05-01T00:21:20.310Z,1017.75
2023-05-01T00:22:20.520Z,1017.71
2023-05-01T00:23:20.826Z,1017.73
2023-05-01T00:24:21.120Z,1017.70
2023-05-01T00:25:21.441Z,1017.63
2023-05-01T00:26:21.798Z,1017.60
2023-05-01T00:27:22.023Z,1017.62
2023-05-01T00:28:22.207Z,1017.59
2023-05-01T00:29:22.566Z,1017.58
2023-05-01T00:30:22.777Z,1017.60
2023-05-01T00:31:23.207Z,1017.57
2023-05-01T00:32:23.431Z,1017.62
2023-05-01T00:33:23.631Z,1017.63
2023-05-01T00:34:23.979Z,1017.60
2023-05-01T00:35:24.172Z,1017.51
2023-05-01T00:36:24.560Z,1017.58
2023-05-01T00:37:24.744Z,1017.52
2023-05-01T00:38:25.040Z,1017.51
2023-05-01T00:39:25.382Z,1017.44
2023-05-01T00:40:25.676Z,1017.47
2023-05-01T00:41:26.087Z,1017.50
2023-05-01T00:42:26.281Z,1017.47
2023-05-01T00:43:26.620Z,1017.41
2023-05-01T00:44:26.830Z,1017.36
2023-05-01T00:45:27.135Z,1017.35
2023-05-01T00:46:27.636Z,1017.35
2023-05-01T00:47:27.883Z,1017.38
2023-05-01T00:48:28.065Z,1017.31
2023-05-01T00:49:28.377Z,1017.37
2023-05-01T00:50:28.703Z,1017.26
2023-05-01T00:51:29.108Z,1017.34
2023-05-01T00:52:29.274Z,1017.28
2023-05-01T00:53:29.615Z,1017.28
2023-05-01T00:54:29.800Z,1017.34
2023-05-01T00:55:30.151Z,1017.31
2023-05-01T00:56:30.488Z,1017.37
2023-05-01T00:57:30.689Z,1017.33
2023-05-01T00:58:31.016Z,1017.32
2023-05-01T00:59:31.330Z,1017.32
2023-05-01T01:00:31.693Z,1017.40
2023-05-01T01:01:31.967Z,1017.29
2023-05-01T01:02:32.171Z,1017.34
2023-05-01T01:03:32.502Z,1017.33
2023-05-01T01:04:32.713Z,1017.35
2023-05-01T01:05:33.080Z,1017.32
2023-05-01T01:06:33.374Z,1017.35
2023-05-01T01:07:33.601Z,1017.35
2023-05-01T01:08:33.814Z,1017.27
2023-05-01T01:09:34.010Z,1017.37
2023-05-01T01:10:34.365Z,1017.36
2023-05-01T01:11:34.587Z,1017.28
2023-05-01T01:12:34.911Z,1017.31
2023-05-01T01:13:35.253Z,1017.32
2023-05-01T01:14:35.567Z,1017.29
2023-05-01T01:15:35.886Z,1017.34
2023-05-01T01:16:36.238Z,1017.35
2023-05-01T01:17:36.562Z,1017.31
2023-05-01T01:18:36.883Z,1017.35
2023-05-01T01:19:37.092Z,1017.31
2023-05-01T01:20:37.443Z,1017.34
2023-05-01T01:21:37.732Z,1017.25
2023-05-01T01:22:38.041Z,1017.30
2023-05-01T01:23:38.379Z,1017.28
2023-05-01T01:24:38.722Z,1017.23
2023-05-01T01:25:38.955Z,1017.24
2023-05-01T01:26:39.168Z,1017.27
2023-05-01T01:27:39.470Z,1017.27
2023-05-01T01:28:39.786Z,1017.26
2023-05-01T01:29:40.116Z,1017.23
2023-05-01T01:30:40.486Z,1017.30
2023-05-01T01:31:40.779Z,1017.27
2023-05-01T01:32:41.122Z,1017.23
2023-05-01T01:33:41.394Z,1017.29
2023-05-01T01:34:41.703Z,1017.28
2023-05-01T01:35:42.053Z,1017.22
2023-05-01T01:36:42.230Z,1017.20
2023-05-01T01:37:42.571Z,1017.19
2023-05-01T01:38:42.903Z,1017.22
2023-05-01T01:39:43.234Z,1017.20
2023-05-01T01:40:43.533Z,1017.19
2023-05-01T01:41:43.863Z,1017.23
2023-05-01T01:42:44.155Z,1017.16
2023-05-01T01:43:44.471Z,1017.18
2023-05-01T01:44:44.782Z,1017.24
2023-05-01T01:45:45.205Z,1017.23
2023-05-01T01:46:45.437Z,1017.22
2023-05-01T01:47:45.792Z,1017.22
2023-05-01T01:48:45.938Z,1017.16
2023-05-01T01:49:46.273Z,1017.15
2023-05-01T01:50:46.662Z,1017.13
2023-05-01T01:51:46.840Z,1017.19
2023-05-01T01:52:47.173Z,1017.16
2023-05-01T01:53:47.471Z,1017.17
2023-05-01T01:54:47.778Z,1017.11
2023-05-01T01:55:48.118Z,1017.16
2023-05-01T01:56:48.414Z,1017.13
2023-05-01T01:57:48.733Z,1017.12
2023-05-01T01:58:49.068Z,1017.08
2023-05-01T01:59:49.433Z,1017.14
2023-05-01T02:00:49.766Z,1017.14
2023-05-01T02:01:50.023Z,1017.16
2023-05-01T02:02:50.267Z,1017.12
2023-05-01T02:03:50.608Z,1017.14
2023-05-01T02:04:50.804Z,1017.15
2023-05-01T02:05:51.131Z,1017.15
2023-05-01T02:06:51.483Z,1017.13
2023-05-01T02:07:51.826Z,1017.15
2023-05-01T02:08:52.059Z,1017.17
2023-05-01T02:09:52.278Z,1017.14
2023-05-01T02:10:52.517Z,1017.12
2023-05-01T02:11:52.828Z,1017.15
2023-05-01T02:12:53.169Z,1017.11
2023-05-01T02:13:53.508Z,1017.10
2023-05-01T02:14:53.894Z,1017.10
2023-05-01T02:15:54.160Z,1017.10
2023-05-01T02:16:54.320Z,1017.04
2023-05-01T02:17:54.707Z,1016.99
2023-05-01T02:18:54.856Z,1017.03
2023-05-01T02:19:55.587Z,1017.05
2023-05-01T02:20:55.410Z,1016.99
2023-05-01T02:21:55.723Z,1017.05
2023-05-01T02:22:56.085Z,1016.98
2023-05-01T02:23:56.272Z,1016.97
2023-05-01T02:24:56.586Z,1016.97
2023-05-01T02:25:56.952Z,1016.97
2023-05-01T02:26:57.154Z,1016.95
2023-05-01T02:27:57.530Z,1016.96
2023-05-01T02:28:57.825Z,1017.03
2023-05-01T02:29:58.308Z,1016.92
2023-05-01T02:30:58.364Z,1016.99
2023-05-01T02:31:58.927Z,1016.94
2023-05-01T02:32:59.059Z,1016.92
2023-05-01T02:33:59.351Z,1016.83
2023-05-01T02:34:59.686Z,1016.91
2023-05-01T02:36:00.028Z,1016.88
2023-05-01T02:37:00.273Z,1016.87
2023-05-01T02:38:00.469Z,1016.81
2023-05-01T02:39:00.792Z,1016.80
2023-05-01T02:40:01.180Z,1016.89
2023-05-01T02:41:01.360Z,1016.81
2023-05-01T02:42:01.667Z,1016.80
2023-05-01T02:43:01.971Z,1016.75
2023-05-01T02:44:02.331Z,1016.81
2023-05-01T02:45:02.686Z,1016.84
2023-05-01T02:46:02.941Z,1016.82
2023-05-01T02:47:03.186Z,1016.79
2023-05-01T02:48:03.399Z,1016.77
2023-05-01T02:49:03.588Z,1016.73
2023-05-01T02:50:03.947Z,1016.75
2023-05-01T02:51:04.166Z,1016.72
2023-05-01T02:52:04.478Z,1016.71
2023-05-01T02:53:04.824Z,1016.72
2023-05-01T02:54:05.128Z,1016.73
2023-05-01T02:55:05.463Z,1016.66
2023-05-01T02:56:05.782Z,1016.73
2023-05-01T02:57:06.131Z,1016.75
2023-05-01T02:58:06.329Z,1016.69
2023-05-01T02:59:06.691Z,1016.70
2023-05-01T03:00:06.894Z,1016.68
2023-05-01T03:01:07.254Z,1016.70
2023-05-01T03:02:07.440Z,1016.66
2023-05-01T03:03:07.824Z,1016.72
2023-05-01T03:04:08.161Z,1016.70
2023-05-01T03:05:08.333Z,1016.73
2023-05-01T03:06:08.665Z,1016.65
2023-05-01T03:07:09.078Z,1016.69
2023-05-01T03:08:09.275Z,1016.68
2023-05-01T03:09:09.589Z,1016.64
2023-05-01T03:10:09.961Z,1016.72
2023-05-01T03:11:10.149Z,1016.64
2023-05-01T03:12:10.466Z,1016.60
2023-05-01T03:13:10.811Z,1016.59
2023-05-01T03:14:11.149Z,1016.62
2023-05-01T03:15:11.400Z,1016.59
2023-05-01T03:16:11.676Z,1016.59
2023-05-01T03:17:11.877Z,1016.53
2023-05-01T03:18:12.283Z,1016.61
2023-05-01T03:19:12.427Z,1016.61
2023-05-01T03:20:12.780Z,1016.60
2023-05-01T03:21:13.167Z,1016.60
2023-05-01T03:22:13.374Z,1016.52
2023-05-01T03:23:13.697Z,1016.55
2023-05-01T03:24:14.036Z,1016.48
2023-05-01T03:26:36.604Z,1016.48
2023-05-01T03:27:36.819Z,1016.53
2023-05-01T03:28:37.184Z,1016.54
2023-05-01T03:29:37.510Z,1016.55
2023-05-01T03:30:37.760Z,1016.50
2023-05-01T03:31:38.156Z,1016.55
2023-05-01T03:32:38.360Z,1016.50
2023-05-01T03:33:38.577Z,1016.41
2023-05-01T03:34:38.868Z,1016.43
2023-05-01T03:35:39.241Z,1016.44
2023-05-01T03:36:39.729Z,1016.44
2023-05-01T03:37:39.851Z,1016.47
2023-05-01T03:38:40.153Z,1016.42
2023-05-01T03:39:40.462Z,1016.40
2023-05-01T03:40:40.754Z,1016.46
2023-05-01T03:41:40.920Z,1016.48
2023-05-01T03:42:41.274Z,1016.36
2023-05-01T03:43:41.498Z,1016.34
2023-05-01T03:44:41.715Z,1016.34
2023-05-01T03:45:44.737Z,1016.31
2023-05-01T03:46:42.430Z,1016.27
2023-05-01T03:47:42.830Z,1016.26
2023-05-01T03:48:43.000Z,1016.30
2023-05-01T03:49:43.244Z,1016.31
2023-05-01T03:50:43.554Z,1016.31
2023-05-01T03:51:43.786Z,1016.24
2023-05-01T03:52:44.021Z,1016.22
2023-05-01T03:53:44.254Z,1016.26
2023-05-01T03:54:44.773Z,1016.36
2023-05-01T03:55:44.813Z,1016.22
2023-05-01T03:56:45.033Z,1016.23
2023-05-01T03:57:45.272Z,1016.19
2023-05-01T03:58:45.500Z,1016.21
2023-05-01T03:59:45.906Z,1016.24
2023-05-01T04:00:45.990Z,1016.23
2023-05-01T04:01:46.269Z,1016.23
2023-05-01T04:02:46.694Z,1016.22
2023-05-01T04:03:46.993Z,1016.21
2023-05-01T04:04:47.229Z,1016.27
2023-05-01T04:05:47.450Z,1016.24
2023-05-01T04:06:47.738Z,1016.28
2023-05-01T04:07:47.911Z,1016.30
2023-05-01T04:08:48.165Z,1016.28
2023-05-01T04:09:48.597Z,1016.26
2023-05-01T04:10:48.735Z,1016.26
2023-05-01T04:11:49.003Z,1016.25
2023-05-01T04:12:49.238Z,1016.28
2023-05-01T04:13:49.451Z,1016.25
2023-05-01T04:14:49.897Z,1016.22
2023-05-01T04:15:49.987Z,1016.26
2023-05-01T04:16:50.163Z,1016.22
2023-05-01T04:17:50.466Z,1016.22
2023-05-01T04:18:50.709Z,1016.19
2023-05-01T04:19:50.972Z,1016.21
2023-05-01T04:20:51.284Z,1016.21
2023-05-01T04:21:51.587Z,1016.20
2023-05-01T04:22:51.875Z,1016.19
2023-05-01T04:23:52.113Z,1016.22
2023-05-01T04:24:52.532Z,1016.20
2023-05-01T04:25:52.709Z,1016.30
2023-05-01T04:26:53.043Z,1016.28
2023-05-01T04:27:53.271Z,1016.26
2023-05-01T04:28:53.510Z,1016.26
2023-05-01T04:29:54.207Z,1016.26
2023-05-01T04:30:54.070Z,1016.27
2023-05-01T04:31:54.341Z,1016.20
2023-05-01T04:32:54.603Z,1016.19
2023-05-01T04:33:54.790Z,1016.16
2023-05-01T04:34:55.055Z,1016.18
2023-05-01T04:35:55.371Z,1016.23
2023-05-01T04:36:55.608Z,1016.21
2023-05-01T04:37:55.877Z,1016.21
2023-05-01T04:38:56.203Z,1016.19
2023-05-01T04:39:56.863Z,1016.13
2023-05-01T04:40:56.826Z,1016.16
2023-05-01T04:41:57.079Z,1016.12
2023-05-01T04:42:57.407Z,1016.16
2023-05-01T04:43:57.658Z,1016.22
2023-05-01T04:44:57.993Z,1016.12
2023-05-01T04:45:58.253Z,1016.16
2023-05-01T04:46:58.468Z,1016.09
2023-05-01T04:47:58.764Z,1016.17
2023-05-01T04:48:58.940Z,1016.12
2023-05-01T04:49:59.256Z,1016.09
2023-05-01T04:50:59.602Z,1016.09
2023-05-01T04:51:59.919Z,1016.06
2023-05-01T04:53:00.148Z,1016.08
2023-05-01T04:54:00.399Z,1016.10
2023-05-01T04:55:00.655Z,1016.08
2023-05-01T04:56:00.976Z,1016.01
2023-05-01T04:57:01.217Z,1016.05
2023-05-01T04:58:01.477Z,1016.05
2023-05-01T04:59:01.808Z,1016.07
2023-05-01T05:00:02.149Z,1015.97
2023-05-01T05:01:02.406Z,1016.00
2023-05-01T05:02:02.803Z,1016.07
2023-05-01T05:03:03.086Z,1016.01
2023-05-01T05:04:03.390Z,1015.98
2023-05-01T05:05:03.609Z,1015.93
2023-05-01T05:06:03.979Z,1016.00
2023-05-01T05:07:04.277Z,1016.00
2023-05-01T05:08:04.486Z,1015.98
2023-05-01T05:09:04.739Z,1015.98
2023-05-01T05:10:05.000Z,1015.97
2023-05-01T05:11:05.242Z,1015.92
2023-05-01T05:12:05.472Z,1015.92
2023-05-01T05:13:05.719Z,1015.91
2023-05-01T05:14:05.982Z,1015.87
2023-05-01T05:15:06.266Z,1015.92
2023-05-01T05:16:06.611Z,1015.94
2023-05-01T05:17:06.897Z,1015.93
2023-05-01T05:18:07.221Z,1015.84
2023-05-01T05:19:07.440Z,1015.81
2023-05-01T05:20:07.744Z,1015.79
2023-05-01T05:21:08.009Z,1015.82
2023-05-01T05:22:08.283Z,1015.86
2023-05-01T05:23:08.758Z,1015.77
2023-05-01T05:24:08.760Z,1015.75
2023-05-01T05:25:09.005Z,1015.75
2023-05-01T05:26:09.303Z,1015.77
2023-05-01T05:27:09.485Z,1015.77
2023-05-01T05:28:09.775Z,1015.72
2023-05-01T05:29:10.003Z,1015.68
2023-05-01T05:30:10.286Z,1015.65
2023-05-01T05:31:10.547Z,1015.66
2023-05-01T05:32:10.819Z,1015.66
2023-05-01T05:33:11.026Z,1015.61
2023-05-01T05:34:11.272Z,1015.60
2023-05-01T05:35:11.551Z,1015.64
2023-05-01T05:36:11.796Z,1015.58
2023-05-01T05:37:12.049Z,1015.58
2023-05-01T05:38:12.273Z,1015.52
2023-05-01T05:39:12.647Z,1015.50
2023-05-01T05:40:12.777Z,1015.49
2023-05-01T05:41:13.021Z,1015.55
2023-05-01T05:42:13.428Z,1015.48
2023-05-01T05:43:13.725Z,1015.48
2023-05-01T05:44:13.926Z,1015.49
2023-05-01T05:45:14.060Z,1015.43
2023-05-01T05:46:14.543Z,1015.42
2023-05-01T05:47:14.573Z,1015.37
2023-05-01T05:48:14.888Z,1015.38
2023-05-01T05:49:15.154Z,1015.40
2023-05-01T05:50:15.382Z,1015.35
2023-05-01T05:51:15.644Z,1015.35
2023-05-01T05:52:15.853Z,1015.35
2023-05-01T05:53:16.091Z,1015.33
2023-05-01T05:54:16.359Z,1015.30
2023-05-01T05:55:16.598Z,1015.25
2023-05-01T05:56:16.834Z,1015.28
2023-05-01T05:57:17.048Z,1015.27
2023-05-01T05:58:17.324Z,1015.23
2023-05-01T05:59:17.693Z,1015.22
2023-05-01T06:00:17.874Z,1015.20
2023-05-01T06:01:18.107Z,1015.22
2023-05-01T06:02:18.396Z,1015.21
2023-05-01T06:03:18.735Z,1015.21
2023-05-01T06:04:19.133Z,1015.23
2023-05-01T06:05:19.277Z,1015.13
2023-05-01T06:06:19.515Z,1015.14
2023-05-01T06:07:19.800Z,1015.21
2023-05-01T06:08:20.004Z,1015.20
2023-05-01T06:09:20.251Z,1015.11
2023-05-01T06:10:20.506Z,1015.11
2023-05-01T06:11:20.757Z,1015.14
2023-05-01T06:12:20.967Z,1015.08
2023-05-01T06:13:21.373Z,1015.08
2023-05-01T06:14:21.644Z,1015.10
2023-05-01T06:15:21.858Z,1015.06
2023-05-01T06:16:22.176Z,1015.11
2023-05-01T06:17:22.465Z,1015.08
2023-05-01T06:18:22.759Z,1015.05
2023-05-01T06:19:23.032Z,1015.03
2023-05-01T06:20:23.283Z,1015.00
2023-05-01T06:21:23.545Z,1014.99
2023-05-01T06:22:23.798Z,1015.07
2023-05-01T06:23:24.048Z,1015.04
2023-05-01T06:24:24.315Z,1015.00
2023-05-01T06:25:24.597Z,1014.98
2023-05-01T06:26:24.834Z,1015.00
2023-05-01T06:27:25.205Z,1014.99
2023-05-01T06:28:25.420Z,1014.99
2023-05-01T06:29:25.664Z,1015.00
2023-05-01T06:30:25.919Z,1014.97
2023-05-01T06:31:26.293Z,1014.97
2023-05-01T06:32:26.501Z,1014.94
2023-05-01T06:33:26.721Z,1014.92
2023-05-01T06:34:27.000Z,1014.92
2023-05-01T06:35:27.240Z,1014.96
2023-05-01T06:36:27.497Z,1015.00
2023-05-01T06:37:27.749Z,1014.90
2023-05-01T06:38:27.985Z,1014.91
2023-05-01T06:39:28.245Z,1014.91
2023-05-01T06:40:28.532Z,1014.95
2023-05-01T06:41:28.800Z,1014.99
2023-05-01T06:42:29.001Z,1014.95
2023-05-01T06:43:29.381Z,1014.95
2023-05-01T06:44:31.503Z,1015.03
2023-05-01T06:45:29.921Z,1015.04
2023-05-01T06:46:30.179Z,1015.02
2023-05-01T06:47:31.179Z,1014.99
2023-05-01T06:48:30.694Z,1014.95
2023-05-01T06:49:31.066Z,1015.00
2023-05-01T06:50:31.338Z,1015.00
2023-05-01T06:51:31.586Z,1014.99
2023-05-01T06:52:31.852Z,1014.91
2023-05-01T06:53:32.104Z,1014.94
2023-05-01T06:54:32.829Z,1014.99
2023-05-01T06:55:33.780Z,1014.95
2023-05-01T06:56:32.944Z,1014.95
2023-05-01T06:57:33.184Z,1014.93
2023-05-01T06:58:33.467Z,1014.94
2023-05-01T06:59:33.795Z,1014.93
2023-05-01T07:00:34.041Z,1014.90
2023-05-01T07:01:35.606Z,1014.93
2023-05-01T07:02:34.712Z,1014.97
2023-05-01T07:03:35.042Z,1015.01
2023-05-01T07:04:35.335Z,1015.00
2023-05-01T07:05:35.585Z,1015.01
2023-05-01T07:06:35.834Z,1014.97
2023-05-01T07:07:37.468Z,1014.97
2023-05-01T07:08:36.388Z,1014.91
2023-05-01T07:09:36.681Z,1014.91
2023-05-01T07:10:37.285Z,1014.98
2023-05-01T07:11:37.237Z,1014.91
2023-05-01T07:12:37.471Z,1014.91
2023-05-01T07:13:37.709Z,1014.90
2023-05-01T07:14:38.060Z,1014.83
2023-05-01T07:15:38.272Z,1014.92
2023-05-01T07:16:38.577Z,1014.86
2023-05-01T07:17:38.889Z,1014.91
2023-05-01T07:18:39.152Z,1014.94
2023-05-01T07:19:39.361Z,1014.95
2023-05-01T07:20:39.694Z,1014.92
2023-05-01T07:21:40.049Z,1014.92
2023-05-01T07:22:40.391Z,1014.92
2023-05-01T07:23:40.625Z,1014.87
2023-05-01T07:24:40.897Z,1014.89
2023-05-01T07:25:41.256Z,1014.84
2023-05-01T07:26:41.482Z,1014.87
2023-05-01T07:27:41.725Z,1014.90
2023-05-01T07:28:41.989Z,1014.89
2023-05-01T07:29:42.242Z,1014.90
2023-05-01T07:30:42.476Z,1014.93
2023-05-01T07:31:42.695Z,1014.90
2023-05-01T07:32:42.990Z,1014.95
2023-05-01T07:33:43.179Z,1014.88
2023-05-01T07:34:43.447Z,1014.93
2023-05-01T07:35:43.656Z,1014.88
2023-05-01T07:36:43.912Z,1014.87
2023-05-01T07:37:44.241Z,1014.90
2023-05-01T07:38:44.487Z,1014.91
2023-05-01T07:39:44.926Z,1014.92
2023-05-01T07:40:45.125Z,1014.86
2023-05-01T07:41:45.357Z,1014.92
2023-05-01T07:42:45.637Z,1014.87
2023-05-01T07:43:45.969Z,1014.91
2023-05-01T07:44:46.328Z,1014.92
2023-05-01T07:45:46.610Z,1014.96
2023-05-01T07:46:46.765Z,1014.94
2023-05-01T07:47:47.032Z,1014.87
2023-05-01T07:48:47.288Z,1014.88
2023-05-01T07:49:47.612Z,1014.90
2023-05-01T07:50:47.951Z,1014.88
2023-05-01T07:51:48.301Z,1014.76
2023-05-01T07:52:48.550Z,1014.77
2023-05-01T07:53:48.859Z,1014.71
2023-05-01T07:54:49.076Z,1014.81
2023-05-01T07:55:49.322Z,1014.77
2023-05-01T07:56:49.897Z,1014.73
2023-05-01T07:57:49.910Z,1014.79
2023-05-01T07:58:50.123Z,1014.67
2023-05-01T07:59:50.344Z,1014.73
2023-05-01T08:00:50.595Z,1014.65
2023-05-01T08:01:50.856Z,1014.71
2023-05-01T08:02:51.249Z,1014.68
2023-05-01T08:03:51.619Z,1014.69
2023-05-01T08:04:51.661Z,1014.67
2023-05-01T08:05:51.792Z,1014.65
2023-05-01T08:06:52.104Z,1014.65
2023-05-01T08:07:52.372Z,1014.58
2023-05-01T08:08:52.644Z,1014.60
2023-05-01T08:09:52.945Z,1014.60
2023-05-01T08:10:53.245Z,1014.62
2023-05-01T08:11:53.552Z,1014.58
2023-05-01T08:12:53.789Z,1014.55
2023-05-01T08:13:54.096Z,1014.51
2023-05-01T08:14:54.322Z,1014.46
2023-05-01T08:15:54.647Z,1014.43
2023-05-01T08:16:54.910Z,1014.47
2023-05-01T08:17:55.236Z,1014.46
2023-05-01T08:18:55.499Z,1014.46
2023-05-01T08:19:55.977Z,1014.46
2023-05-01T08:20:55.970Z,1014.46
2023-05-01T08:21:56.226Z,1014.43
2023-05-01T08:22:56.476Z,1014.48
2023-05-01T08:23:56.781Z,1014.44
2023-05-01T08:24:57.046Z,1014.49
2023-05-01T08:25:57.342Z,1014.43
2023-05-01T08:26:57.669Z,1014.47
2023-05-01T08:27:57.942Z,1014.48
2023-05-01T08:28:58.256Z,1014.39
2023-05-01T08:29:58.728Z,1014.36
2023-05-01T08:30:58.787Z,1014.35
2023-05-01T08:31:59.071Z,1014.37
2023-05-01T08:32:59.356Z,1014.41
2023-05-01T08:33:59.653Z,1014.40
2023-05-01T08:34:59.914Z,1014.38
2023-05-01T08:36:00.201Z,1014.36
2023-05-01T08:37:00.421Z,1014.37
2023-05-01T08:38:00.689Z,1014.33
2023-05-01T08:39:01.023Z,1014.39
2023-05-01T08:40:01.198Z,1014.40
2023-05-01T08:41:01.453Z,1014.36
2023-05-01T08:42:01.698Z,1014.40
2023-05-01T08:43:01.956Z,1014.36
2023-05-01T08:44:02.253Z,1014.35
2023-05-01T08:45:02.521Z,1014.39
2023-05-01T08:46:02.775Z,1014.37
2023-05-01T08:47:03.154Z,1014.39
2023-05-01T08:48:03.354Z,1014.34
2023-05-01T08:49:03.798Z,1014.27
2023-05-01T08:50:03.865Z,1014.29
2023-05-01T08:51:04.153Z,1014.34
2023-05-01T08:52:04.408Z,1014.30
2023-05-01T08:53:04.659Z,1014.28
2023-05-01T08:54:04.943Z,1014.27
2023-05-01T08:55:05.189Z,1014.28
2023-05-01T08:56:05.462Z,1014.26
2023-05-01T08:57:05.935Z,1014.21
2023-05-01T08:58:06.014Z,1014.23
2023-05-01T08:59:06.296Z,1014.16
2023-05-01T09:00:06.553Z,1014.24
2023-05-01T09:01:06.868Z,1014.14
2023-05-01T09:02:07.197Z,1014.17
2023-05-01T09:03:07.483Z,1014.21
2023-05-01T09:04:07.724Z,1014.16
2023-05-01T09:05:07.854Z,1014.15
2023-05-01T09:06:08.111Z,1014.16
2023-05-01T09:07:08.351Z,1014.13
2023-05-01T09:08:08.602Z,1014.09
2023-05-01T09:09:08.909Z,1014.09
2023-05-01T09:10:09.206Z,1014.06
2023-05-01T09:11:09.488Z,1014.05
2023-05-01T09:12:09.757Z,1014.04
2023-05-01T09:13:10.047Z,1014.00
2023-05-01T09:14:10.338Z,1013.99
2023-05-01T09:15:10.608Z,1013.98
2023-05-01T09:16:10.969Z,1014.03
2023-05-01T09:17:11.102Z,1013.95
2023-05-01T09:18:11.409Z,1013.92
2023-05-01T09:19:11.804Z,1013.90
2023-05-01T09:20:11.943Z,1013.82
2023-05-01T09:21:12.169Z,1013.87
2023-05-01T09:22:12.508Z,1013.84
2023-05-01T09:23:12.771Z,1013.83
2023-05-01T09:24:13.057Z,1013.83
2023-05-01T09:25:13.310Z,1013.79
2023-05-01T09:27:10.310Z,1013.89
2023-05-01T09:28:10.466Z,1013.80
2023-05-01T09:29:10.678Z,1013.74
2023-05-01T09:30:10.940Z,1013.75
2023-05-01T09:31:11.170Z,1013.75
2023-05-01T09:32:11.577Z,1013.74
2023-05-01T09:33:11.964Z,1013.72
2023-05-01T09:34:12.052Z,1013.67
2023-05-01T09:35:12.287Z,1013.59
2023-05-01T09:36:12.506Z,1013.71
2023-05-01T09:37:12.853Z,1013.62
2023-05-01T09:38:13.079Z,1013.60
2023-05-01T09:39:13.329Z,1013.61
2023-05-01T09:40:13.568Z,1013.60
2023-05-01T09:41:13.803Z,1013.60
2023-05-01T09:42:14.158Z,1013.55
2023-05-01T09:43:14.386Z,1013.58
2023-05-01T09:44:14.628Z,1013.53
2023-05-01T09:45:14.888Z,1013.50
2023-05-01T09:46:15.236Z,1013.53
2023-05-01T09:47:15.326Z,1013.47
2023-05-01T09:48:15.708Z,1013.40
2023-05-01T09:49:16.045Z,1013.42
2023-05-01T09:50:16.277Z,1013.42
2023-05-01T09:51:16.537Z,1013.36
2023-05-01T09:52:16.749Z,1013.39
2023-05-01T09:53:16.987Z,1013.41
2023-05-01T09:54:17.325Z,1013.35
2023-05-01T09:55:17.557Z,1013.32
2023-05-01T09:56:17.912Z,1013.33
2023-05-01T09:57:18.248Z,1013.29
2023-05-01T09:58:18.466Z,1013.32
2023-05-01T09:59:18.826Z,1013.32
2023-05-01T10:00:19.049Z,1013.28
2023-05-01T10:01:19.508Z,1013.27
2023-05-01T10:02:19.704Z,1013.26
2023-05-01T10:03:20.066Z,1013.22
2023-05-01T10:04:20.278Z,1013.20
2023-05-01T10:05:20.555Z,1013.20
2023-05-01T10:06:20.781Z,1013.23
2023-05-01T10:07:21.009Z,1013.26
2023-05-01T10:08:21.236Z,1013.23
2023-05-01T10:09:21.525Z,1013.20
2023-05-01T10:10:21.733Z,1013.18
2023-05-01T10:11:21.988Z,1013.18
2023-05-01T10:12:22.330Z,1013.16
2023-05-01T10:13:22.553Z,1013.12
2023-05-01T10:14:22.814Z,1013.14
2023-05-01T10:15:26.796Z,1013.15
2023-05-01T10:16:23.401Z,1013.13
2023-05-01T10:17:23.722Z,1013.09
2023-05-01T10:18:23.970Z,1013.06
2023-05-01T10:19:24.220Z,1013.05
2023-05-01T10:20:24.458Z,1013.09
2023-05-01T10:21:24.681Z,1013.02
2023-05-01T10:22:24.951Z,1012.97
2023-05-01T10:23:25.209Z,1012.95
2023-05-01T10:24:25.402Z,1013.01
2023-05-01T10:25:25.643Z,1013.01
2023-05-01T10:26:25.858Z,1012.92
2023-05-01T10:27:26.093Z,1012.89
2023-05-01T10:28:26.315Z,1012.98
2023-05-01T10:29:26.589Z,1012.93
2023-05-01T10:30:26.827Z,1012.84
2023-05-01T10:31:27.215Z,1012.82
2023-05-01T10:32:27.360Z,1012.91
2023-05-01T10:33:27.573Z,1012.91
2023-05-01T10:34:28.406Z,1012.83
2023-05-01T10:35:28.142Z,1012.86
2023-05-01T10:36:28.485Z,1012.82
2023-05-01T10:37:28.726Z,1012.83
2023-05-01T10:38:28.970Z,1012.79
2023-05-01T10:39:29.224Z,1012.75
2023-05-01T10:40:29.461Z,1012.77
2023-05-01T10:41:29.718Z,1012.76
2023-05-01T10:42:29.952Z,1012.72
2023-05-01T10:43:30.173Z,1012.65
2023-05-01T10:44:30.437Z,1012.63
2023-05-01T10:45:30.688Z,1012.61
2023-05-01T10:46:31.001Z,1012.57
2023-05-01T10:47:31.243Z,1012.61
2023-05-01T10:48:31.446Z,1012.67
2023-05-01T10:49:31.857Z,1012.56
2023-05-01T10:50:32.309Z,1012.52
2023-05-01T10:51:32.450Z,1012.56
2023-05-01T10:52:32.672Z,1012.54
2023-05-01T10:53:33.037Z,1012.62
2023-05-01T10:54:33.369Z,1012.61
2023-05-01T10:55:33.571Z,1012.59
2023-05-01T10:56:33.793Z,1012.54
2023-05-01T10:57:34.006Z,1012.49
2023-05-01T10:58:34.362Z,1012.50
2023-05-01T10:59:34.628Z,1012.48
2023-05-01T11:00:34.871Z,1012.44
2023-05-01T11:01:35.147Z,1012.46
2023-05-01T11:02:35.368Z,1012.46
2023-05-01T11:03:35.620Z,1012.43
2023-05-01T11:04:35.903Z,1012.40
2023-05-01T11:05:38.729Z,1012.40
2023-05-01T11:06:36.593Z,1012.37
2023-05-01T11:07:36.731Z,1012.34
2023-05-01T11:08:36.972Z,1012.30
2023-05-01T11:09:37.214Z,1012.25
2023-05-01T11:10:37.464Z,1012.20
2023-05-01T11:11:37.731Z,1012.17
2023-05-01T11:12:37.968Z,1012.21
2023-05-01T11:13:39.010Z,1012.20
2023-05-01T11:14:38.577Z,1012.18
2023-05-01T11:15:38.799Z,1012.24
2023-05-01T11:16:39.122Z,1012.25
2023-05-01T11:17:39.354Z,1012.19
2023-05-01T11:18:39.710Z,1012.18
2023-05-01T11:19:40.926Z,1012.17
2023-05-01T11:20:40.227Z,1012.18
2023-05-01T11:21:40.463Z,1012.12
2023-05-01T11:22:40.742Z,1012.06
2023-05-01T11:23:40.989Z,1012.05
2023-05-01T11:24:41.219Z,1012.05
2023-05-01T11:25:41.478Z,1012.03
2023-05-01T11:26:41.695Z,1012.10
2023-05-01T11:27:41.921Z,1012.10
2023-05-01T11:28:42.159Z,1011.99
2023-05-01T11:29:42.436Z,1011.93
2023-05-01T11:30:42.661Z,1011.99
2023-05-01T11:31:42.963Z,1011.86
2023-05-01T11:32:43.163Z,1011.87
2023-05-01T11:33:43.431Z,1011.82
2023-05-01T11:34:43.663Z,1011.81
2023-05-01T11:35:43.913Z,1011.82
2023-05-01T11:36:44.155Z,1011.76
2023-05-01T11:37:44.408Z,1011.86
2023-05-01T11:38:44.643Z,1011.82
2023-05-01T11:39:44.867Z,1011.82
2023-05-01T11:40:45.204Z,1011.76
2023-05-01T11:41:45.494Z,1011.77
2023-05-01T11:42:45.699Z,1011.69
2023-05-01T11:43:45.943Z,1011.69
2023-05-01T11:44:46.171Z,1011.71
2023-05-01T11:45:46.442Z,1011.72
2023-05-01T11:46:46.646Z,1011.72
2023-05-01T11:47:47.079Z,1011.72
2023-05-01T11:48:47.395Z,1011.64
2023-05-01T11:49:47.660Z,1011.65
2023-05-01T11:50:47.929Z,1011.58
2023-05-01T11:51:48.167Z,1011.60
2023-05-01T11:52:48.397Z,1011.59
2023-05-01T11:53:48.668Z,1011.57
2023-05-01T11:54:48.908Z,1011.56
2023-05-01T11:55:49.154Z,1011.54
2023-05-01T11:56:49.413Z,1011.52
2023-05-01T11:57:49.634Z,1011.48
2023-05-01T11:58:49.874Z,1011.48
2023-05-01T11:59:50.130Z,1011.53
2023-05-01T12:00:50.351Z,1011.42
2023-05-01T12:01:50.783Z,1011.37
2023-05-01T12:02:51.071Z,1011.38
2023-05-01T12:03:51.475Z,1011.36
2023-05-01T12:04:51.700Z,1011.37
2023-05-01T12:05:51.813Z,1011.33
2023-05-01T12:06:52.154Z,1011.33
2023-05-01T12:07:52.442Z,1011.32
2023-05-01T12:08:52.690Z,1011.34
2023-05-01T12:09:52.884Z,1011.29
2023-05-01T12:10:53.138Z,1011.26